LFBL

Limoges-Bellegarde Airport

Airport
ICAO code
LFBL
Summary
ICAO Region
EUR
ICAO Territory
Location

Limoges, Limousin, France,

Coordinates
45° 51' 46" N , 1° 10' 46" E
KCC
Cfb
Metar
Observation
LFBL 171000Z AUTO 17008KT 140V210 9999 FEW013 BKN100 OVC150 18/15 Q1013 TEMPO 4000 SHRA SCT025 BKN035CB
Station
Limoges
Date/Time
2022-08-17 10:00:00
Wind direction
170°
Wind speed
08 kts
Lowest cloud amount
few clouds
Temperature
18°C
Dew point
15°C
Humidity
82%
QNH
1013 hPa
Weather condition
n/a

Description

International airport 6 km west-northwest of Limoges, France.

Climatology

Temperate Marine climate/Oceanic climate (Köppen climate classification Cfb). Moderately cool summer and comparatively warm winter with a temperature range of only 14°C. Prevailing south-westerly winds from the Atlantic Ocean.

Runways

Designator Length Width Surface Rops
3/21 2500 45 ASP Yes/Yes

Airport map

Aerial View

Airport accidents

SKYbrary Partners:

Safety knowledge contributed by: